createdAt,value
2023-03-24T00:00:28.276Z,12.80
2023-03-24T00:02:56.637Z,12.90
2023-03-24T00:05:23.960Z,12.90
2023-03-24T00:10:22.494Z,13.10
2023-03-24T00:12:49.685Z,13.00
2023-03-24T00:15:19.490Z,13.10
2023-03-24T00:17:50.278Z,13.10
2023-03-24T00:20:20.110Z,13.20
2023-03-24T00:22:56.754Z,13.20
2023-03-24T00:25:29.193Z,13.20
2023-03-24T00:27:58.003Z,13.20
2023-03-24T00:30:26.326Z,13.30
2023-03-24T00:32:53.929Z,13.30
2023-03-24T00:35:21.882Z,13.30
2023-03-24T00:37:51.849Z,13.30
2023-03-24T00:40:20.842Z,13.40
2023-03-24T00:42:49.892Z,13.40
2023-03-24T00:45:20.365Z,13.40
2023-03-24T00:47:49.982Z,13.40
2023-03-24T00:50:20.402Z,13.50
2023-03-24T00:52:49.043Z,13.50
2023-03-24T00:55:16.809Z,13.50
2023-03-24T00:57:51.530Z,13.50
2023-03-24T01:00:24.998Z,13.40
2023-03-24T01:02:54.632Z,13.40
2023-03-24T01:05:23.638Z,13.30
2023-03-24T01:07:56.392Z,13.20
2023-03-24T01:10:26.621Z,13.20
2023-03-24T01:13:00.065Z,13.10
2023-03-24T01:15:30.661Z,13.10
2023-03-24T01:17:57.837Z,13.10
2023-03-24T01:20:25.466Z,13.00
2023-03-24T01:22:52.829Z,13.00
2023-03-24T01:25:22.429Z,13.00
2023-03-24T01:27:51.010Z,13.00
2023-03-24T01:30:21.137Z,12.80
2023-03-24T01:32:48.020Z,12.90
2023-03-24T01:35:15.152Z,12.80
2023-03-24T01:37:42.424Z,12.80
2023-03-24T01:40:11.530Z,12.70
2023-03-24T01:42:39.756Z,12.70
2023-03-24T01:45:44.270Z,12.70
2023-03-24T01:48:20.074Z,12.80
2023-03-24T01:50:59.000Z,12.70
2023-03-24T01:53:27.224Z,12.70
2023-03-24T01:55:55.755Z,12.70
2023-03-24T01:58:25.869Z,12.70
2023-03-24T02:00:52.883Z,12.70
2023-03-24T02:03:23.221Z,12.70
2023-03-24T02:05:53.334Z,12.60
2023-03-24T02:08:42.284Z,12.70
2023-03-24T02:11:09.814Z,12.50
2023-03-24T02:13:36.871Z,12.60
2023-03-24T02:16:25.096Z,12.70
2023-03-24T02:18:54.854Z,12.70
2023-03-24T02:21:56.962Z,12.80
2023-03-24T02:25:11.665Z,12.70
2023-03-24T02:28:11.892Z,12.80
2023-03-24T02:31:01.197Z,12.80
2023-03-24T02:33:46.020Z,12.70
2023-03-24T02:36:48.894Z,12.80
2023-03-24T02:39:21.601Z,12.90
2023-03-24T02:42:13.398Z,12.90
2023-03-24T02:44:59.083Z,13.00
2023-03-24T02:47:37.735Z,13.00
2023-03-24T02:50:13.987Z,13.00
2023-03-24T02:52:48.841Z,13.00
2023-03-24T02:55:25.177Z,12.90
2023-03-24T02:58:01.740Z,12.90
2023-03-24T03:00:34.985Z,12.90
2023-03-24T03:03:31.114Z,13.00
2023-03-24T03:06:05.982Z,13.00
2023-03-24T03:08:35.035Z,13.00
2023-03-24T03:11:05.509Z,13.00
2023-03-24T03:13:44.721Z,13.00
2023-03-24T03:16:21.329Z,13.10
2023-03-24T03:19:01.457Z,13.00
2023-03-24T03:21:35.004Z,13.10
2023-03-24T03:24:26.569Z,13.10
2023-03-24T03:27:09.329Z,13.10
2023-03-24T03:29:40.320Z,13.20
2023-03-24T03:32:12.236Z,13.20
2023-03-24T03:34:57.392Z,13.20
2023-03-24T03:37:49.671Z,13.30
2023-03-24T03:40:34.862Z,13.20
2023-03-24T03:43:03.223Z,13.20
2023-03-24T03:45:30.289Z,13.30
2023-03-24T03:47:57.336Z,13.30
2023-03-24T03:50:24.300Z,13.30
2023-03-24T03:52:52.781Z,13.40
2023-03-24T03:55:19.984Z,13.40
2023-03-24T03:57:47.137Z,13.40
2023-03-24T04:00:20.375Z,13.40
2023-03-24T04:03:05.314Z,13.40
2023-03-24T04:05:51.372Z,13.50
2023-03-24T04:08:37.398Z,13.50
2023-03-24T04:11:09.966Z,13.50
2023-03-24T04:13:47.644Z,13.50
2023-03-24T04:16:33.181Z,13.50
2023-03-24T04:19:08.676Z,13.50
2023-03-24T04:22:06.308Z,13.50
2023-03-24T04:24:40.159Z,13.50
2023-03-24T04:27:14.575Z,13.40
2023-03-24T04:29:54.445Z,13.40
2023-03-24T04:32:47.689Z,13.30
2023-03-24T04:35:31.385Z,13.20
2023-03-24T04:38:03.433Z,13.20
2023-03-24T04:40:36.666Z,13.10
2023-03-24T04:43:07.348Z,13.10
2023-03-24T04:45:36.144Z,13.10
2023-03-24T04:48:08.643Z,13.10
2023-03-24T04:50:42.810Z,13.10
2023-03-24T04:53:10.578Z,13.10
2023-03-24T04:55:49.595Z,13.30
2023-03-24T04:58:22.035Z,13.20
2023-03-24T05:00:50.023Z,13.10
2023-03-24T05:03:18.597Z,13.20
2023-03-24T05:05:48.313Z,13.20
2023-03-24T05:08:17.048Z,13.20
2023-03-24T05:10:44.737Z,13.20
2023-03-24T05:13:14.477Z,13.20
2023-03-24T05:15:41.410Z,13.40
2023-03-24T05:18:08.372Z,13.30
2023-03-24T05:20:35.231Z,13.20
2023-03-24T05:23:02.051Z,13.30
2023-03-24T05:25:29.074Z,13.30
2023-03-24T05:27:56.007Z,13.30
2023-03-24T05:30:23.032Z,13.30
2023-03-24T05:32:49.999Z,13.60
2023-03-24T05:35:16.998Z,13.40
2023-03-24T05:37:44.357Z,13.50
2023-03-24T05:40:11.828Z,13.50
2023-03-24T05:42:38.636Z,13.60
2023-03-24T05:45:06.555Z,13.60
2023-03-24T05:47:33.762Z,13.60
2023-03-24T05:50:00.763Z,13.60
2023-03-24T05:52:28.937Z,13.60
2023-03-24T05:54:56.018Z,13.60
2023-03-24T05:57:22.992Z,13.80
2023-03-24T05:59:52.027Z,13.70
2023-03-24T06:02:18.851Z,13.70
2023-03-24T06:04:48.850Z,13.80
2023-03-24T06:07:16.480Z,13.80
2023-03-24T06:09:48.283Z,13.80
2023-03-24T06:12:16.213Z,13.90
2023-03-24T06:14:43.803Z,13.90
2023-03-24T06:17:14.893Z,14.00
2023-03-24T06:19:49.687Z,14.00
2023-03-24T06:22:20.509Z,14.00
2023-03-24T06:24:47.850Z,14.10
2023-03-24T06:27:14.677Z,14.20
2023-03-24T06:29:44.744Z,14.30
2023-03-24T06:32:11.756Z,14.30
2023-03-24T06:34:41.641Z,14.30
2023-03-24T06:37:08.816Z,14.60
2023-03-24T06:39:35.653Z,14.50
2023-03-24T06:42:02.555Z,14.50
2023-03-24T06:44:29.549Z,14.50
2023-03-24T06:46:56.448Z,14.60
2023-03-24T06:49:23.462Z,14.70
2023-03-24T06:51:50.456Z,14.70
2023-03-24T06:54:17.819Z,14.80
2023-03-24T06:56:44.682Z,14.80
2023-03-24T06:59:11.542Z,14.80
2023-03-24T07:01:38.634Z,14.80
2023-03-24T07:04:06.180Z,15.00
2023-03-24T07:06:40.314Z,14.80
2023-03-24T07:09:13.815Z,14.80
2023-03-24T07:11:41.343Z,14.80
2023-03-24T07:14:08.341Z,14.80
2023-03-24T07:16:35.416Z,14.70
2023-03-24T07:19:02.880Z,14.60
2023-03-24T07:21:29.740Z,14.50
2023-03-24T07:23:56.600Z,14.50
2023-03-24T07:26:23.578Z,14.50
2023-03-24T07:28:50.582Z,14.50
2023-03-24T07:31:17.520Z,14.70
2023-03-24T07:33:44.374Z,14.50
2023-03-24T07:36:11.591Z,14.50
2023-03-24T07:38:38.537Z,14.60
2023-03-24T07:41:05.559Z,14.60
2023-03-24T07:43:32.662Z,14.60
2023-03-24T07:45:59.595Z,14.60
2023-03-24T07:48:27.168Z,14.50
2023-03-24T07:50:54.150Z,14.50
2023-03-24T07:53:21.159Z,14.60
2023-03-24T07:55:48.681Z,14.50
2023-03-24T07:58:15.944Z,14.50
2023-03-24T08:00:43.119Z,14.50
2023-03-24T08:03:15.413Z,14.40
2023-03-24T08:05:44.166Z,14.30
2023-03-24T08:08:12.897Z,14.30
2023-03-24T08:10:39.805Z,14.20
2023-03-24T08:13:06.907Z,14.20
2023-03-24T08:15:33.874Z,14.20
2023-03-24T08:18:00.935Z,14.20
2023-03-24T08:20:29.519Z,14.30
2023-03-24T08:22:57.692Z,14.30
2023-03-24T08:25:25.938Z,14.70
2023-03-24T08:27:55.339Z,14.70
2023-03-24T08:30:24.869Z,14.70
2023-03-24T08:32:56.015Z,14.90
2023-03-24T08:35:29.428Z,14.90
2023-03-24T08:37:56.462Z,15.20
2023-03-24T08:40:24.257Z,15.20
2023-03-24T08:42:54.751Z,15.10
2023-03-24T08:45:23.793Z,15.10
2023-03-24T08:47:52.404Z,15.20
2023-03-24T08:50:22.384Z,15.20
2023-03-24T08:52:49.793Z,15.20
2023-03-24T08:55:18.602Z,15.30
2023-03-24T08:57:46.167Z,15.20
2023-03-24T09:00:15.221Z,15.20
2023-03-24T09:02:43.984Z,15.30
2023-03-24T09:05:11.707Z,15.30
2023-03-24T09:07:39.038Z,15.30
2023-03-24T09:10:07.603Z,15.30
2023-03-24T09:12:35.701Z,15.30
2023-03-24T09:15:04.007Z,15.30
2023-03-24T09:17:31.057Z,15.30
2023-03-24T09:19:58.629Z,15.40
2023-03-24T09:22:29.669Z,15.40
2023-03-24T09:24:56.597Z,15.40
2023-03-24T09:27:24.212Z,15.50
2023-03-24T09:29:53.236Z,15.60
2023-03-24T09:32:21.145Z,15.70
2023-03-24T09:34:48.733Z,15.70
2023-03-24T09:37:15.609Z,15.70
2023-03-24T09:39:43.037Z,15.70
2023-03-24T09:42:20.399Z,15.70
2023-03-24T09:44:52.601Z,15.80
2023-03-24T09:47:28.429Z,16.00
2023-03-24T09:50:00.998Z,16.10
2023-03-24T09:52:36.161Z,16.30
2023-03-24T09:55:04.674Z,16.40
2023-03-24T09:57:46.771Z,16.60
2023-03-24T10:00:27.968Z,17.00
2023-03-24T10:03:01.307Z,17.20
2023-03-24T10:05:58.690Z,17.20
2023-03-24T10:08:33.668Z,17.10
2023-03-24T10:11:14.450Z,17.30
2023-03-24T10:13:55.967Z,17.40
2023-03-24T10:16:34.393Z,17.50
2023-03-24T10:19:23.316Z,17.50
2023-03-24T10:21:58.100Z,17.50
2023-03-24T10:24:38.595Z,17.40
2023-03-24T10:27:25.018Z,17.40
2023-03-24T10:29:57.819Z,17.30
2023-03-24T10:32:29.550Z,17.40
2023-03-24T10:35:00.264Z,17.40
2023-03-24T10:37:30.830Z,17.30
2023-03-24T10:39:58.189Z,17.40
2023-03-24T10:42:28.396Z,17.60
2023-03-24T10:44:55.941Z,17.60
2023-03-24T10:47:31.495Z,17.60
2023-03-24T10:50:14.090Z,17.60
2023-03-24T10:52:48.756Z,17.60
2023-03-24T10:55:19.205Z,17.50
2023-03-24T10:57:58.483Z,17.40
2023-03-24T11:00:30.002Z,17.30
2023-03-24T11:03:08.552Z,17.20
2023-03-24T11:05:38.683Z,17.20
2023-03-24T11:08:17.675Z,17.40
2023-03-24T11:10:44.904Z,17.50
2023-03-24T11:13:21.111Z,17.60
2023-03-24T11:16:15.798Z,17.70
2023-03-24T11:19:06.933Z,17.70
2023-03-24T11:21:37.012Z,17.70
2023-03-24T11:24:11.809Z,17.50
2023-03-24T11:26:41.052Z,17.50
2023-03-24T11:29:24.220Z,17.40
2023-03-24T11:32:03.566Z,17.40
2023-03-24T11:34:34.317Z,17.40
2023-03-24T11:37:05.440Z,17.40
2023-03-24T11:39:34.275Z,17.50
2023-03-24T11:42:19.074Z,17.50
2023-03-24T11:44:49.180Z,17.50
2023-03-24T11:47:32.515Z,17.40
2023-03-24T11:50:11.914Z,17.40
2023-03-24T11:53:13.361Z,17.30
2023-03-24T11:55:48.025Z,17.20
2023-03-24T11:58:31.827Z,17.20
2023-03-24T12:01:04.085Z,17.20
2023-03-24T12:04:13.098Z,17.20
2023-03-24T12:07:12.651Z,17.20
2023-03-24T12:10:21.146Z,17.30
2023-03-24T12:13:29.603Z,17.40
2023-03-24T12:16:16.721Z,17.70
2023-03-24T12:18:52.445Z,18.00
2023-03-24T12:21:37.648Z,17.90
2023-03-24T12:24:10.914Z,18.00
2023-03-24T12:26:39.723Z,17.90
2023-03-24T12:29:46.360Z,17.90
2023-03-24T12:32:18.734Z,17.80
2023-03-24T12:34:52.811Z,17.70
2023-03-24T12:37:29.276Z,17.80
2023-03-24T12:40:45.350Z,17.70
2023-03-24T12:43:51.724Z,17.60
2023-03-24T12:46:47.975Z,17.60
2023-03-24T12:49:48.702Z,17.60
2023-03-24T12:52:24.528Z,17.50
2023-03-24T12:55:14.725Z,17.50
2023-03-24T12:57:48.337Z,17.50
2023-03-24T13:00:31.973Z,17.50
2023-03-24T13:03:18.150Z,17.50
2023-03-24T13:05:51.145Z,17.50
2023-03-24T13:08:32.140Z,17.60
2023-03-24T13:11:05.589Z,17.70
2023-03-24T13:13:40.342Z,17.90
2023-03-24T13:16:22.889Z,18.00
2023-03-24T13:18:54.499Z,17.90
2023-03-24T13:49:16.090Z,18.20
2023-03-24T13:51:46.961Z,18.10
2023-03-24T13:54:21.531Z,18.00
2023-03-24T13:57:14.159Z,17.80
2023-03-24T14:00:01.967Z,17.50
2023-03-24T14:02:50.519Z,17.30
2023-03-24T14:05:26.777Z,17.20
2023-03-24T14:08:41.137Z,17.30
2023-03-24T14:11:34.824Z,17.40
2023-03-24T14:14:19.141Z,17.40
2023-03-24T14:17:04.467Z,17.30
2023-03-24T14:19:40.472Z,17.30
2023-03-24T14:22:12.939Z,17.30
2023-03-24T14:24:43.683Z,17.40
2023-03-24T14:27:36.606Z,17.40
2023-03-24T14:30:34.914Z,17.30
2023-03-24T14:33:06.944Z,17.30
2023-03-24T14:35:36.955Z,17.30
2023-03-24T14:38:29.077Z,17.30
2023-03-24T14:41:09.193Z,17.40
2023-03-24T14:43:39.188Z,17.40
2023-03-24T14:46:34.684Z,17.40
2023-03-24T14:49:32.413Z,17.40
2023-03-24T14:52:12.733Z,17.40
2023-03-24T14:54:45.924Z,17.60
2023-03-24T14:57:22.426Z,17.40
2023-03-24T15:00:00.893Z,17.40
2023-03-24T15:03:00.284Z,17.40
2023-03-24T15:05:28.580Z,17.30
2023-03-24T15:08:11.998Z,17.30
2023-03-24T15:11:04.014Z,17.40
2023-03-24T15:13:36.858Z,17.30
2023-03-24T15:16:12.524Z,17.40
2023-03-24T15:19:05.344Z,17.30
2023-03-24T15:21:36.839Z,17.30
2023-03-24T15:24:22.149Z,17.30
2023-03-24T15:26:52.117Z,17.20
2023-03-24T15:29:19.521Z,17.20
2023-03-24T15:31:46.482Z,17.20
2023-03-24T15:34:34.703Z,17.30
2023-03-24T15:37:07.864Z,17.20
2023-03-24T15:39:37.335Z,17.10
2023-03-24T15:42:09.476Z,17.00
2023-03-24T15:44:39.792Z,17.00
2023-03-24T15:47:23.259Z,17.00
2023-03-24T15:50:01.327Z,17.10
2023-03-24T15:52:30.929Z,17.10
2023-03-24T15:55:16.498Z,17.10
2023-03-24T15:57:43.351Z,17.00
2023-03-24T16:00:20.312Z,16.80
2023-03-24T16:02:52.152Z,16.70
2023-03-24T16:05:23.501Z,16.60
2023-03-24T16:08:27.316Z,16.50
2023-03-24T16:11:07.843Z,16.40
2023-03-24T16:13:35.368Z,16.30
2023-03-24T16:16:11.373Z,16.20
2023-03-24T16:18:40.822Z,16.20
2023-03-24T16:21:15.265Z,16.30
2023-03-24T16:23:46.627Z,16.20
2023-03-24T16:26:20.763Z,16.20
2023-03-24T16:28:48.597Z,16.10
2023-03-24T16:31:22.682Z,16.00
2023-03-24T16:33:50.797Z,15.90
2023-03-24T16:36:18.717Z,15.80
2023-03-24T16:38:46.769Z,15.70
2023-03-24T16:41:15.105Z,15.70
2023-03-24T16:43:42.725Z,15.70
2023-03-24T16:46:14.319Z,15.80
2023-03-24T16:48:42.072Z,15.70
2023-03-24T16:51:16.629Z,15.70
2023-03-24T16:53:45.149Z,15.60
2023-03-24T16:56:18.041Z,15.50
2023-03-24T16:58:47.776Z,15.30
2023-03-24T17:01:35.718Z,15.20
2023-03-24T17:04:02.681Z,15.10
2023-03-24T17:06:32.245Z,15.00
2023-03-24T17:09:00.033Z,15.00
2023-03-24T17:11:30.377Z,14.80
2023-03-24T17:14:02.020Z,14.60
2023-03-24T17:16:29.688Z,14.40
2023-03-24T17:18:56.731Z,14.20
2023-03-24T17:21:24.589Z,14.00
2023-03-24T17:23:54.979Z,13.50
2023-03-24T17:26:22.895Z,13.30
2023-03-24T17:29:06.428Z,12.80
2023-03-24T17:31:33.917Z,12.40
2023-03-24T17:34:08.528Z,12.00
2023-03-24T17:36:50.007Z,11.80
2023-03-24T17:39:18.279Z,11.60
2023-03-24T17:41:45.658Z,11.40
2023-03-24T17:44:12.941Z,11.50
2023-03-24T17:47:56.717Z,11.10
2023-03-24T17:50:30.904Z,11.00
2023-03-24T17:52:58.101Z,10.90
2023-03-24T17:55:25.336Z,10.80
2023-03-24T17:57:52.544Z,10.80
2023-03-24T18:00:20.644Z,10.80
2023-03-24T18:02:49.927Z,10.80
2023-03-24T18:08:19.922Z,10.80
2023-03-24T18:10:47.025Z,10.90
2023-03-24T18:13:14.312Z,10.70
2023-03-24T18:15:42.964Z,10.70
2023-03-24T18:18:10.266Z,10.60
2023-03-24T18:20:39.211Z,10.60
2023-03-24T18:23:06.628Z,10.60
2023-03-24T18:25:34.109Z,10.50
2023-03-24T18:28:01.185Z,10.50
2023-03-24T18:30:28.166Z,10.40
2023-03-24T18:32:55.213Z,10.50
2023-03-24T18:35:22.473Z,10.30
2023-03-24T18:37:49.384Z,10.30
2023-03-24T18:40:17.512Z,10.50
2023-03-24T18:42:44.736Z,10.20
2023-03-24T18:45:18.365Z,10.20
2023-03-24T18:47:47.001Z,10.20
2023-03-24T18:50:14.486Z,10.10
2023-03-24T18:52:41.408Z,10.10
2023-03-24T18:55:09.207Z,10.10
2023-03-24T18:57:36.052Z,10.10
2023-03-24T19:00:06.622Z,10.30
2023-03-24T19:02:33.689Z,10.20
2023-03-24T19:05:02.359Z,10.10
2023-03-24T19:07:29.272Z,10.30
2023-03-24T19:09:56.543Z,10.30
2023-03-24T19:12:23.429Z,10.10
2023-03-24T19:15:03.139Z,10.00
2023-03-24T19:20:28.962Z,10.00
2023-03-24T19:22:56.401Z,10.00
2023-03-24T19:25:23.424Z,10.20
2023-03-24T19:27:50.463Z,10.00
2023-03-24T19:30:18.247Z,10.00
2023-03-24T19:32:46.793Z,10.00
2023-03-24T19:35:14.273Z,10.00
2023-03-24T19:37:41.493Z,10.00
2023-03-24T19:40:11.773Z,10.10
2023-03-24T19:42:41.823Z,10.10
2023-03-24T19:45:10.052Z,10.10
2023-03-24T19:47:37.696Z,10.10
2023-03-24T19:50:07.490Z,10.10
2023-03-24T19:52:35.043Z,10.20
2023-03-24T19:55:02.679Z,10.20
2023-03-24T19:57:31.776Z,10.20
2023-03-24T19:59:59.215Z,10.40
2023-03-24T20:02:26.469Z,10.50
2023-03-24T20:04:57.394Z,10.30
2023-03-24T20:07:24.744Z,10.20
2023-03-24T20:09:51.610Z,10.30
2023-03-24T20:12:18.712Z,10.20
2023-03-24T20:14:45.557Z,10.20
2023-03-24T20:17:23.248Z,10.20
2023-03-24T20:19:50.762Z,10.20
2023-03-24T20:22:17.652Z,10.20
2023-03-24T20:24:44.685Z,10.10
2023-03-24T20:27:11.763Z,10.10
2023-03-24T20:29:39.794Z,10.10
2023-03-24T20:32:10.179Z,10.10
2023-03-24T20:34:40.732Z,10.00
2023-03-24T20:37:08.111Z,10.00
2023-03-24T20:39:35.474Z,10.00
2023-03-24T20:42:02.451Z,10.00
2023-03-24T20:44:29.791Z,9.90
2023-03-24T20:47:00.816Z,9.90
2023-03-24T20:49:27.892Z,9.90
2023-03-24T20:51:54.809Z,9.80
2023-03-24T20:54:21.981Z,9.80
2023-03-24T20:56:52.591Z,9.80
2023-03-24T20:59:19.774Z,9.80
2023-03-24T21:01:48.504Z,9.80
2023-03-24T21:04:16.999Z,9.80
2023-03-24T21:06:44.303Z,10.00
2023-03-24T21:09:12.215Z,9.80
2023-03-24T21:11:39.218Z,9.80
2023-03-24T21:14:06.411Z,9.70
2023-03-24T21:16:37.540Z,9.90
2023-03-24T21:19:05.490Z,9.70
2023-03-24T21:21:36.454Z,9.70
2023-03-24T21:24:07.678Z,9.70
2023-03-24T21:26:34.914Z,9.70
2023-03-24T21:29:02.094Z,9.70
2023-03-24T21:31:29.745Z,9.70
2023-03-24T21:33:57.103Z,9.70
2023-03-24T21:36:29.978Z,9.60
2023-03-24T21:38:57.672Z,9.60
2023-03-24T21:41:24.680Z,9.60
2023-03-24T21:43:54.249Z,9.60
2023-03-24T21:46:23.447Z,9.60
2023-03-24T21:48:55.435Z,9.60
2023-03-24T21:51:24.877Z,9.80
2023-03-24T21:53:55.473Z,9.60
2023-03-24T21:56:24.356Z,9.70
2023-03-24T21:58:54.792Z,9.50
2023-03-24T22:01:22.443Z,9.50
2023-03-24T22:03:50.909Z,9.50
2023-03-24T22:06:18.030Z,9.50
2023-03-24T22:08:48.657Z,9.50
2023-03-24T22:11:18.428Z,9.50
2023-03-24T22:13:46.307Z,9.50
2023-03-24T22:16:14.197Z,9.50
2023-03-24T22:18:41.738Z,9.50
2023-03-24T22:21:10.545Z,9.50
2023-03-24T22:23:40.011Z,9.50
2023-03-24T22:26:10.328Z,9.50
2023-03-24T22:28:38.377Z,9.50
2023-03-24T22:31:08.087Z,9.50
2023-03-24T22:33:35.361Z,9.60
2023-03-24T22:36:02.993Z,9.50
2023-03-24T22:38:30.617Z,9.50
2023-03-24T22:41:04.680Z,9.50
2023-03-24T22:43:32.474Z,9.50
2023-03-24T22:45:59.724Z,9.50
2023-03-24T22:48:26.842Z,9.60
2023-03-24T22:51:06.645Z,9.70
2023-03-24T22:53:33.645Z,9.70
2023-03-24T22:56:00.773Z,9.90
2023-03-24T22:58:27.661Z,9.70
2023-03-24T23:00:56.374Z,9.90
2023-03-24T23:03:23.373Z,9.80
2023-03-24T23:05:50.483Z,9.80
2023-03-24T23:08:19.065Z,9.80
2023-03-24T23:10:47.379Z,9.90
2023-03-24T23:13:16.847Z,10.00
2023-03-24T23:15:44.205Z,10.00
2023-03-24T23:18:11.732Z,10.10
2023-03-24T23:20:38.885Z,10.40
2023-03-24T23:23:06.962Z,10.20
2023-03-24T23:25:42.412Z,10.20
2023-03-24T23:28:12.970Z,10.20
2023-03-24T23:30:40.583Z,10.30
2023-03-24T23:33:07.703Z,10.50
2023-03-24T23:35:35.806Z,10.60
2023-03-24T23:38:03.002Z,10.50
2023-03-24T23:40:29.869Z,10.50
2023-03-24T23:42:56.812Z,10.50
2023-03-24T23:45:23.937Z,10.60
2023-03-24T23:47:51.612Z,10.60
2023-03-24T23:50:20.438Z,10.60
2023-03-24T23:52:47.475Z,10.60
2023-03-24T23:55:15.762Z,10.60
2023-03-24T23:57:43.044Z,10.70
